Time;durP1;ratioP1;P1;durP2;ratioP2;P2;SDS_P1;SDS_P2;PMS_P1;PMS_P2;Temp;Humidity;BMP_temperature;BMP_pressure;BME280_temperature;BME280_humidity;BME280_pressure;Samples;Min_cycle;Max_cycle;Signal;HPM_P1;HPM_P2
2022/06/03 00:01:42;;;;;;;2.90;2.30;;;;;;;15.51;73.59;98157.84;5137829;27;20222;-69
2022/06/03 00:04:32;;;;;;;3.47;2.17;;;;;;;15.48;74.04;98158.38;5137853;27;20195;-69
2022/06/03 00:07:37;;;;;;;3.80;2.40;;;;;;;15.50;73.95;98163.47;5137829;27;20197;-69
2022/06/03 00:10:23;;;;;;;3.73;2.40;;;;;;;15.56;73.68;98155.25;5109561;27;20285;-69
2022/06/03 00:13:11;;;;;;;3.00;2.67;;;;;;;15.53;73.85;98169.16;5137701;27;20277;-69
2022/06/03 00:15:59;;;;;;;3.47;2.60;;;;;;;15.57;73.43;98162.25;5138130;27;20197;-69
2022/06/03 00:18:48;;;;;;;2.30;2.10;;;;;;;15.70;72.58;98156.50;5137151;27;20651;-69
2022/06/03 00:21:43;;;;;;;2.67;2.40;;;;;;;15.43;74.03;98144.09;5137982;27;20255;-69
2022/06/03 00:24:29;;;;;;;2.83;2.60;;;;;;;15.42;74.66;98147.84;5137412;27;20202;-69
2022/06/03 00:27:15;;;;;;;2.77;2.50;;;;;;;15.49;73.71;98154.63;5137413;27;20210;-69
2022/06/03 00:30:08;;;;;;;3.20;2.57;;;;;;;15.39;74.51;98138.44;5103888;27;20198;-69
2022/06/03 00:32:57;;;;;;;2.60;2.40;;;;;;;15.51;73.70;98141.00;5136939;27;20259;-69
2022/06/03 00:35:48;;;;;;;2.93;2.30;;;;;;;15.33;74.58;98139.34;5137308;27;20277;-69
2022/06/03 00:38:37;;;;;;;3.60;2.60;;;;;;;15.24;75.05;98142.72;5119258;27;20222;-69
2022/06/03 00:41:22;;;;;;;3.10;2.30;;;;;;;15.27;75.19;98144.88;5119316;27;20214;-69
2022/06/03 00:44:03;;;;;;;3.40;2.33;;;;;;;15.32;74.67;98140.41;5136509;27;20194;-69
2022/06/03 00:46:55;;;;;;;3.27;2.57;;;;;;;15.13;76.41;98140.94;5136720;27;20187;-69
2022/06/03 00:49:48;;;;;;;2.60;2.40;;;;;;;15.05;76.77;98146.69;5136578;27;20796;-69
2022/06/03 00:52:40;;;;;;;2.60;2.40;;;;;;;15.18;75.61;98143.69;5136577;27;20705;-69
2022/06/03 00:55:43;;;;;;;2.87;2.67;;;;;;;15.01;76.53;98148.28;5136557;27;20206;-69
2022/06/03 00:58:34;;;;;;;4.43;2.60;;;;;;;14.91;76.92;98150.75;5136746;27;20222;-69
2022/06/03 01:01:19;;;;;;;4.60;2.60;;;;;;;14.94;77.09;98148.44;5136348;27;20206;-69
2022/06/03 01:03:51;;;;;;;3.00;2.30;;;;;;;15.00;76.98;98136.75;5136714;27;20191;-69
2022/06/03 01:06:40;;;;;;;2.83;2.40;;;;;;;14.89;77.28;98136.81;5136587;27;20294;-69
2022/06/03 01:09:12;;;;;;;4.00;2.70;;;;;;;14.75;78.29;98136.31;5136531;27;20295;-69
2022/06/03 01:12:03;;;;;;;2.67;2.47;;;;;;;14.77;78.06;98131.56;5136443;27;20203;-69
2022/06/03 01:15:07;;;;;;;3.97;2.83;;;;;;;14.68;78.66;98133.00;5136499;27;20560;-69
2022/06/03 01:18:01;;;;;;;2.87;2.67;;;;;;;14.96;77.48;98132.09;5136361;27;20320;-69
2022/06/03 01:20:52;;;;;;;3.47;3.00;;;;;;;14.87;78.05;98138.91;5119301;27;20560;-69
2022/06/03 01:23:29;;;;;;;3.17;2.80;;;;;;;14.77;79.22;98141.44;5136323;27;20186;-69
2022/06/03 01:26:29;;;;;;;2.63;2.43;;;;;;;14.79;78.68;98148.16;5118046;27;20190;-69
2022/06/03 01:29:18;;;;;;;2.83;2.63;;;;;;;14.80;78.79;98144.47;5136144;27;20228;-69
2022/06/03 01:32:11;;;;;;;3.50;2.67;;;;;;;14.75;79.23;98141.69;5135765;27;20199;-69
2022/06/03 01:34:54;;;;;;;3.30;3.00;;;;;;;14.76;79.16;98137.97;5135839;27;20555;-69
2022/06/03 01:37:33;;;;;;;4.60;2.90;;;;;;;14.74;79.32;98132.03;5135675;27;20197;-69
2022/06/03 01:40:00;;;;;;;3.30;3.00;;;;;;;14.79;78.91;98142.81;5135729;27;20636;-69
2022/06/03 01:42:59;;;;;;;4.10;2.87;;;;;;;14.83;79.35;98141.28;5136487;27;20197;-69
2022/06/03 01:45:55;;;;;;;2.93;2.63;;;;;;;14.87;79.22;98145.09;5119922;27;20294;-69
2022/06/03 01:48:59;;;;;;;3.03;2.73;;;;;;;14.87;79.57;98145.09;5135458;27;20578;-69
2022/06/03 01:51:41;;;;;;;3.70;3.17;;;;;;;14.88;79.46;98146.72;5135463;27;20580;-69
2022/06/03 01:54:38;;;;;;;2.97;2.77;;;;;;;14.71;80.56;98145.91;5134958;27;20220;-69
2022/06/03 01:57:19;;;;;;;3.93;2.90;;;;;;;14.78;79.89;98143.88;5135664;27;20183;-69
2022/06/03 02:00:03;;;;;;;3.67;3.10;;;;;;;14.90;79.70;98152.66;5135642;27;20194;-69
2022/06/03 02:02:55;;;;;;;3.17;2.83;;;;;;;14.93;79.58;98144.09;5135224;27;20676;-68
2022/06/03 02:05:22;;;;;;;3.50;2.80;;;;;;;14.96;80.00;98140.97;5089932;27;20206;-69
2022/06/03 02:07:57;;;;;;;3.30;3.00;;;;;;;14.92;79.79;98136.34;5135373;27;20242;-70
2022/06/03 02:10:56;;;;;;;3.23;3.00;;;;;;;14.84;80.33;98145.56;5135394;27;20201;-69
2022/06/03 02:13:32;;;;;;;3.40;3.10;;;;;;;14.85;80.12;98141.03;5135054;27;20651;-69
2022/06/03 02:16:18;;;;;;;4.90;3.40;;;;;;;14.89;79.97;98137.66;5117114;27;20198;-70
2022/06/03 02:18:46;;;;;;;3.50;2.90;;;;;;;14.88;80.45;98137.88;5082829;27;20228;-69
2022/06/03 02:21:45;;;;;;;3.90;3.20;;;;;;;14.94;79.51;98129.69;5135109;27;20222;-69
2022/06/03 02:24:32;;;;;;;3.57;3.00;;;;;;;14.92;79.50;98134.47;5117557;27;20198;-70
2022/06/03 02:27:18;;;;;;;4.90;3.30;;;;;;;14.99;79.52;98140.47;5135126;27;20277;-69
2022/06/03 02:33:25;;;;;;;5.93;3.40;;;;;;;14.93;79.80;98133.41;5134862;27;20187;-69
2022/06/03 02:36:34;;;;;;;3.30;3.00;;;;;;;14.90;80.19;98135.75;5134970;27;20289;-70
2022/06/03 02:39:30;;;;;;;3.77;3.40;;;;;;;14.88;80.53;98135.22;5134847;27;20229;-69
2022/06/03 02:42:08;;;;;;;4.13;3.40;;;;;;;14.83;80.16;98129.78;5044413;27;20284;-69
2022/06/03 02:44:37;;;;;;;4.17;3.50;;;;;;;14.86;80.10;98124.75;5134887;27;20247;-69
2022/06/03 02:47:25;;;;;;;3.50;3.20;;;;;;;14.87;80.19;98130.88;5134783;27;20289;-69
2022/06/03 02:50:10;;;;;;;3.77;3.47;;;;;;;14.82;80.82;98137.00;5134696;27;20286;-69
2022/06/03 02:53:17;;;;;;;4.50;3.20;;;;;;;14.72;81.10;98136.84;5134774;27;20262;-69
2022/06/03 02:56:14;;;;;;;3.73;3.30;;;;;;;14.75;81.20;98128.31;5083809;28;20285;-69
2022/06/03 02:58:49;;;;;;;3.37;3.00;;;;;;;14.71;81.76;98129.88;5134128;27;20219;-69
2022/06/03 03:01:37;;;;;;;4.47;3.30;;;;;;;14.74;81.54;98132.03;5134491;27;20228;-69
2022/06/03 03:04:12;;;;;;;3.33;2.93;;;;;;;14.67;82.09;98134.06;5134556;28;20608;-69
2022/06/03 03:07:11;;;;;;;3.53;3.23;;;;;;;14.62;82.13;98130.50;5133871;27;20198;-69
2022/06/03 03:10:06;;;;;;;3.87;3.13;;;;;;;14.58;82.38;98146.22;5116191;28;20278;-69
2022/06/03 03:12:47;;;;;;;3.67;3.20;;;;;;;14.65;81.81;98152.22;5134185;28;20182;-69
2022/06/03 03:15:38;;;;;;;3.80;3.03;;;;;;;14.65;82.15;98143.41;5134227;28;20189;-69
2022/06/03 03:18:11;;;;;;;6.97;3.10;;;;;;;14.67;82.13;98134.06;5134198;28;20229;-68
2022/06/03 03:21:18;;;;;;;4.17;3.50;;;;;;;14.72;81.78;98133.34;5134049;28;20297;-69
2022/06/03 03:23:45;;;;;;;4.40;4.00;;;;;;;14.75;81.60;98136.31;5118965;28;20209;-69
2022/06/03 03:26:34;;;;;;;4.87;3.63;;;;;;;14.70;81.77;98136.25;5134663;28;20212;-69
2022/06/03 03:29:28;;;;;;;3.73;3.43;;;;;;;14.63;82.31;98132.94;5134110;28;20309;-69
2022/06/03 03:32:03;;;;;;;4.70;3.60;;;;;;;14.57;82.99;98127.75;5115805;28;20191;-69
2022/06/03 03:34:39;;;;;;;5.60;3.13;;;;;;;14.60;82.82;98125.38;5134047;28;20283;-69
2022/06/03 03:37:43;;;;;;;4.07;3.20;;;;;;;14.67;82.12;98127.91;5133901;28;20304;-69
2022/06/03 03:40:27;;;;;;;4.10;3.53;;;;;;;14.58;82.56;98126.69;5133858;28;20206;-69
2022/06/03 03:43:24;;;;;;;3.83;3.53;;;;;;;14.48;83.45;98126.50;5133829;28;20313;-69
2022/06/03 03:46:21;;;;;;;4.07;3.73;;;;;;;14.45;83.54;98129.66;5133612;28;20308;-69
2022/06/03 03:49:22;;;;;;;4.53;3.50;;;;;;;14.48;83.73;98129.19;5134629;28;20237;-69
2022/06/03 03:52:00;;;;;;;3.83;3.50;;;;;;;14.63;82.54;98132.13;5134078;28;20518;-69
2022/06/03 03:55:01;;;;;;;4.03;3.63;;;;;;;14.41;84.21;98129.34;5133389;28;20222;-69
2022/06/03 03:57:52;;;;;;;4.47;3.50;;;;;;;14.42;85.10;98125.59;5133827;28;20552;-69
2022/06/03 04:00:51;;;;;;;4.07;3.60;;;;;;;14.46;84.39;98124.06;5133852;28;20193;-69
2022/06/03 04:03:29;;;;;;;3.40;3.10;;;;;;;14.45;84.50;98125.13;5133158;28;20646;-69
2022/06/03 04:06:14;;;;;;;4.47;3.80;;;;;;;14.38;85.03;98116.44;5133241;28;20669;-69
2022/06/03 04:09:18;;;;;;;6.43;3.80;;;;;;;14.41;85.33;98124.00;5133501;28;20222;-70
2022/06/03 04:12:31;;;;;;;3.60;3.30;;;;;;;14.44;85.78;98123.53;5133854;28;20199;-70
2022/06/03 04:15:29;;;;;;;4.43;3.87;;;;;;;14.51;84.96;98112.66;5115543;28;20274;-70
2022/06/03 04:17:59;;;;;;;4.30;3.83;;;;;;;14.50;85.52;98119.03;5133858;27;20701;-69
2022/06/03 04:20:48;;;;;;;6.60;4.00;;;;;;;14.51;85.24;98118.03;5137267;27;20590;-69
2022/06/03 04:23:46;;;;;;;3.83;3.53;;;;;;;14.43;86.15;98121.88;5137183;27;20273;-69
2022/06/03 04:26:37;;;;;;;3.80;3.50;;;;;;;14.46;85.66;98123.25;5121313;27;20187;-69
2022/06/03 04:32:05;;;;;;;3.90;3.60;;;;;;;14.46;85.08;98110.69;5136066;27;20290;-69
2022/06/03 04:35:06;;;;;;;4.53;4.13;;;;;;;14.47;85.77;98104.28;5136679;27;20251;-69
2022/06/03 04:38:04;;;;;;;4.50;4.10;;;;;;;14.53;84.96;98105.19;5136891;27;20274;-70
2022/06/03 04:40:48;;;;;;;4.70;3.90;;;;;;;14.65;83.81;98106.72;5137389;27;20197;-70
2022/06/03 04:43:20;;;;;;;3.67;3.37;;;;;;;14.75;83.56;98109.56;5136316;27;20198;-69
2022/06/03 04:46:29;;;;;;;4.37;3.70;;;;;;;14.84;82.75;98102.75;5136251;27;20191;-69
2022/06/03 04:49:16;;;;;;;4.23;3.83;;;;;;;14.89;83.05;98104.72;5118011;27;20218;-69
2022/06/03 04:52:04;;;;;;;4.57;3.80;;;;;;;15.02;81.41;98110.50;5136534;27;20270;-69
2022/06/03 04:54:52;;;;;;;6.93;4.23;;;;;;;15.11;81.23;98108.25;5136207;27;20218;-70
2022/06/03 04:57:58;;;;;;;4.60;3.80;;;;;;;15.20;78.76;98093.38;5136116;27;20201;-70
2022/06/03 05:01:07;;;;;;;6.70;4.20;;;;;;;15.27;78.75;98102.03;5118251;27;20193;-69
2022/06/03 05:04:04;;;;;;;4.53;4.13;;;;;;;15.56;77.19;98101.66;5104700;27;20267;-69
2022/06/03 05:07:04;;;;;;;4.90;4.07;;;;;;;16.07;75.31;98100.38;5136166;27;20209;-69
2022/06/03 05:09:58;;;;;;;7.90;4.27;;;;;;;16.41;73.69;98102.63;5136277;27;20218;-69
2022/06/03 05:12:57;;;;;;;6.13;4.27;;;;;;;16.44;73.20;98102.13;5135519;27;20190;-69
2022/06/03 05:15:42;;;;;;;7.37;4.20;;;;;;;16.85;71.61;98112.13;5115844;27;20207;-69
2022/06/03 05:18:20;;;;;;;6.70;4.43;;;;;;;17.35;70.36;98112.47;5135389;27;20222;-69
2022/06/03 05:20:55;;;;;;;9.77;4.63;;;;;;;18.00;66.91;98110.06;5135184;27;20282;-69
2022/06/03 05:24:06;;;;;;;7.30;4.67;;;;;;;17.92;67.33;98113.25;5117675;27;20515;-69
2022/06/03 05:27:10;;;;;;;6.40;4.00;;;;;;;18.13;66.07;98104.19;5087681;27;20213;-69
2022/06/03 05:30:08;;;;;;;8.67;4.60;;;;;;;17.78;69.01;98117.50;5135484;27;20313;-70
2022/06/03 05:33:02;;;;;;;7.00;4.60;;;;;;;17.64;69.13;98102.16;5135513;27;20634;-69
2022/06/03 05:35:53;;;;;;;5.80;5.20;;;;;;;17.68;69.24;98101.34;5136355;27;20186;-69
2022/06/03 05:38:41;;;;;;;7.73;4.90;;;;;;;17.51;70.89;98108.78;5134988;27;20227;-69
2022/06/03 05:44:25;;;;;;;8.90;5.33;;;;;;;17.54;71.61;98116.34;5135617;27;20189;-69
2022/06/03 05:47:26;;;;;;;5.73;5.13;;;;;;;17.51;71.23;98110.69;5116977;27;20197;-70
2022/06/03 05:50:09;;;;;;;8.73;6.23;;;;;;;17.60;70.86;98115.28;5119734;27;20665;-69
2022/06/03 05:53:13;;;;;;;8.63;6.63;;;;;;;17.66;72.06;98114.25;5135372;27;20183;-70
2022/06/03 05:56:04;;;;;;;8.53;6.77;;;;;;;17.77;70.86;98115.91;5135124;27;20273;-69
2022/06/03 05:58:50;;;;;;;7.43;5.83;;;;;;;17.67;71.16;98120.44;5135176;27;20623;-69
2022/06/03 06:01:16;;;;;;;7.20;6.50;;;;;;;17.77;71.11;98115.09;5117371;27;20191;-69
2022/06/03 06:03:49;;;;;;;10.60;6.60;;;;;;;17.72;71.61;98121.28;5135140;27;20209;-70
2022/06/03 06:07:00;;;;;;;6.83;6.10;;;;;;;17.88;70.92;98101.44;5134787;27;20193;-69
2022/06/03 06:09:45;;;;;;;6.77;6.10;;;;;;;18.13;70.25;98095.28;5134872;27;20218;-70
2022/06/03 06:12:28;;;;;;;12.23;7.13;;;;;;;18.10;69.99;98096.63;5116576;27;20193;-69
2022/06/03 06:14:58;;;;;;;6.37;5.43;;;;;;;18.05;70.49;98098.53;5134548;27;20533;-70
2022/06/03 06:17:42;;;;;;;8.50;5.70;;;;;;;18.11;70.23;98095.59;5134910;27;20633;-69
2022/06/03 06:20:38;;;;;;;7.87;5.73;;;;;;;18.11;70.45;98098.28;5116695;27;20273;-69
2022/06/03 06:23:16;;;;;;;7.23;5.63;;;;;;;18.07;69.96;98094.50;5123075;27;20317;-70
2022/06/03 06:26:19;;;;;;;6.33;5.00;;;;;;;18.10;69.93;98088.56;5117896;27;20273;-69
2022/06/03 06:29:07;;;;;;;8.77;5.87;;;;;;;18.21;70.25;98087.53;5103670;27;20225;-69
2022/06/03 06:31:33;;;;;;;10.37;5.50;;;;;;;18.52;69.95;98085.69;5134548;27;20183;-70
2022/06/03 06:34:13;;;;;;;5.43;4.80;;;;;;;18.64;69.83;98088.94;5134472;27;20203;-70
2022/06/03 06:36:58;;;;;;;9.77;5.80;;;;;;;18.72;68.53;98091.91;5134405;27;20282;-69
2022/06/03 06:39:43;;;;;;;6.83;5.40;;;;;;;19.11;67.41;98087.56;5134540;27;20313;-69
2022/06/03 06:42:33;;;;;;;10.67;5.73;;;;;;;18.88;67.88;98082.75;5134056;27;20206;-70
2022/06/03 06:45:06;;;;;;;9.30;6.07;;;;;;;18.93;67.72;98090.00;5133992;27;20622;-70
2022/06/03 06:47:52;;;;;;;9.13;5.50;;;;;;;19.00;67.71;98093.25;5134513;27;20207;-70
2022/06/03 06:50:25;;;;;;;7.30;5.57;;;;;;;19.32;66.22;98085.66;5134032;27;20206;-69
2022/06/03 06:53:13;;;;;;;8.33;5.50;;;;;;;19.41;66.14;98079.41;5134228;27;20183;-69
2022/06/03 06:56:17;;;;;;;5.83;5.03;;;;;;;19.27;66.58;98083.75;5134689;27;20285;-70
2022/06/03 06:58:58;;;;;;;5.57;5.07;;;;;;;19.46;67.01;98082.09;5098936;27;20226;-70
2022/06/03 07:01:30;;;;;;;6.73;5.33;;;;;;;19.57;67.05;98080.16;5134119;27;20273;-70
2022/06/03 07:04:12;;;;;;;5.93;4.67;;;;;;;19.47;66.66;98074.81;5116468;28;20186;-70
2022/06/03 07:07:01;;;;;;;5.53;4.70;;;;;;;19.52;66.44;98080.19;5133910;28;20655;-70
2022/06/03 07:09:41;;;;;;;7.13;4.33;;;;;;;19.71;66.73;98083.09;5117508;28;20228;-70
2022/06/03 07:12:17;;;;;;;6.23;4.30;;;;;;;19.95;65.71;98084.06;5134192;28;20273;-70
2022/06/03 07:15:21;;;;;;;5.77;4.40;;;;;;;19.82;65.32;98082.78;5133888;28;20198;-70
2022/06/03 07:20:59;;;;;;;5.70;5.00;;;;;;;19.73;65.14;98070.13;5133890;28;20177;-70
2022/06/03 07:23:26;;;;;;;6.03;4.67;;;;;;;19.69;65.88;98069.88;5133991;28;20226;-70
2022/06/03 07:26:00;;;;;;;7.07;4.90;;;;;;;19.90;66.00;98062.50;5133669;28;20202;-70
2022/06/03 07:28:49;;;;;;;5.87;4.73;;;;;;;20.27;64.00;98054.72;5133927;28;20313;-70
2022/06/03 07:31:31;;;;;;;6.53;4.50;;;;;;;20.31;65.13;98059.31;5133822;28;20281;-70
2022/06/03 07:34:13;;;;;;;5.27;4.63;;;;;;;20.59;63.56;98055.84;5133909;28;20259;-70
2022/06/03 07:36:54;;;;;;;6.50;4.40;;;;;;;20.73;63.50;98061.38;5133507;28;20627;-70
2022/06/03 07:39:38;;;;;;;7.70;4.40;;;;;;;20.72;62.57;98054.38;5115530;28;20229;-70
2022/06/03 07:42:40;;;;;;;5.83;4.50;;;;;;;20.96;62.92;98053.38;5133880;28;20317;-70
2022/06/03 07:45:12;;;;;;;5.03;4.53;;;;;;;21.15;61.10;98048.84;5118038;28;20213;-69
2022/06/03 07:47:39;;;;;;;8.70;4.93;;;;;;;21.34;61.70;98048.94;5134167;28;20219;-70
2022/06/03 07:50:12;;;;;;;4.40;4.00;;;;;;;21.63;60.65;98041.53;5133892;28;20301;-70
2022/06/03 07:53:11;;;;;;;6.10;4.33;;;;;;;21.65;60.40;98034.75;5133706;27;20191;-70
2022/06/03 07:55:37;;;;;;;5.60;4.27;;;;;;;21.64;59.62;98030.44;5034578;27;20206;-70
2022/06/03 07:58:15;;;;;;;4.63;4.00;;;;;;;21.75;60.52;98023.03;5137689;27;20313;-70
2022/06/03 08:00:44;;;;;;;5.03;3.90;;;;;;;22.08;59.48;98020.13;5137654;27;20197;-69
2022/06/03 08:03:21;;;;;;;5.55;3.78;;;;;;;22.19;58.52;98015.31;5137519;27;20272;-70
2022/06/03 08:05:50;;;;;;;4.38;3.55;;;;;;;22.09;58.82;98008.19;5137224;27;20545;-70
2022/06/03 08:11:33;;;;;;;4.05;3.65;;;;;;;22.57;56.53;98004.16;5137717;27;20307;-70
2022/06/03 08:14:02;;;;;;;4.05;3.67;;;;;;;22.50;56.79;97998.34;5132953;27;20355;-70
2022/06/03 08:16:41;;;;;;;5.05;3.90;;;;;;;22.37;57.53;97993.66;5137405;27;20207;-70
2022/06/03 08:19:24;;;;;;;5.15;3.38;;;;;;;22.56;58.55;97996.38;5137042;27;20305;-70
2022/06/03 08:21:54;;;;;;;3.97;3.60;;;;;;;22.83;57.78;97997.22;5137838;27;20187;-70
2022/06/03 08:24:25;;;;;;;4.20;3.80;;;;;;;22.58;57.09;97994.16;5136795;27;20293;-70
2022/06/03 08:26:56;;;;;;;5.10;3.00;;;;;;;22.63;57.80;97992.16;5118273;27;20277;-70
2022/06/03 08:29:41;;;;;;;4.05;3.20;;;;;;;22.98;56.44;97990.72;5136262;27;20253;-70
2022/06/03 08:32:17;;;;;;;5.18;3.67;;;;;;;23.09;55.31;97989.41;5136045;27;20600;-70
2022/06/03 08:34:50;;;;;;;7.13;3.47;;;;;;;22.46;56.40;97991.91;5136086;27;20621;-70
2022/06/03 08:37:30;;;;;;;6.30;2.92;;;;;;;22.93;57.35;97990.81;5136599;27;20696;-70
2022/06/03 08:39:58;;;;;;;6.10;3.17;;;;;;;22.97;55.75;97986.41;5137080;27;20292;-70
2022/06/03 08:42:27;;;;;;;3.63;3.33;;;;;;;23.21;54.27;97981.63;5135798;27;20317;-69
2022/06/03 08:45:16;;;;;;;6.45;3.60;;;;;;;23.16;54.56;97970.84;5136660;27;20293;-70
2022/06/03 08:47:49;;;;;;;3.30;3.00;;;;;;;23.28;54.25;97968.44;5136632;27;20218;-70
2022/06/03 08:50:25;;;;;;;3.97;2.78;;;;;;;23.41;54.87;97964.91;5136824;27;20277;-70
2022/06/03 08:53:01;;;;;;;6.20;3.08;;;;;;;23.63;52.96;97967.69;5136956;27;20236;-70
2022/06/03 08:55:42;;;;;;;3.17;2.95;;;;;;;23.65;53.07;97971.72;5136787;27;20194;-70
2022/06/03 08:58:27;;;;;;;4.00;2.90;;;;;;;23.71;51.91;97967.81;5136396;27;20727;-70
2022/06/03 09:01:12;;;;;;;3.28;2.50;;;;;;;23.85;52.91;97952.28;5136459;27;20278;-70
2022/06/03 09:03:54;;;;;;;2.83;2.58;;;;;;;24.17;53.34;97941.22;5135853;27;20302;-70
2022/06/03 09:06:37;;;;;;;2.95;2.65;;;;;;;24.17;52.49;97940.41;5135986;27;20227;-70
2022/06/03 09:09:17;;;;;;;4.10;2.97;;;;;;;24.26;52.10;97933.94;5136423;27;20617;-70
2022/06/03 09:12:10;;;;;;;3.45;2.80;;;;;;;24.63;52.23;97925.38;5136695;27;20285;-70
2022/06/03 09:14:40;;;;;;;4.55;3.20;;;;;;;24.63;51.47;97930.00;5136639;27;20282;-70
2022/06/03 09:17:54;;;;;;;3.55;3.25;;;;;;;24.63;51.12;97930.81;5136127;27;20203;-70
2022/06/03 09:20:26;;;;;;;4.95;2.85;;;;;;;24.78;51.13;97921.47;5126736;27;20293;-70
2022/06/03 09:23:00;;;;;;;6.28;3.13;;;;;;;24.97;50.81;97930.19;5135811;27;20784;-70
2022/06/03 09:25:31;;;;;;;4.03;2.80;;;;;;;24.89;51.32;97929.03;5136169;27;20251;-70
2022/06/03 09:27:59;;;;;;;5.63;3.40;;;;;;;25.23;50.88;97922.91;5135827;27;20277;-70
2022/06/03 09:30:31;;;;;;;4.88;2.88;;;;;;;25.74;49.32;97920.31;5135920;27;20253;-70
2022/06/03 09:33:00;;;;;;;4.40;3.00;;;;;;;25.79;49.35;97918.19;5136259;27;20182;-70
2022/06/03 09:35:28;;;;;;;3.78;3.20;;;;;;;25.72;49.21;97908.91;5135681;27;20657;-70
2022/06/03 09:37:58;;;;;;;3.50;3.22;;;;;;;25.74;49.51;97923.03;5135252;27;20765;-69
2022/06/03 09:40:32;;;;;;;3.55;3.13;;;;;;;25.70;48.71;97930.22;5135449;27;20210;-69
2022/06/03 09:43:18;;;;;;;3.22;2.90;;;;;;;25.98;48.70;97924.19;5135563;27;20302;-70
2022/06/03 09:45:46;;;;;;;3.97;3.30;;;;;;;25.89;48.15;97922.53;5135666;27;20273;-70
2022/06/03 09:48:23;;;;;;;3.92;2.90;;;;;;;25.94;48.95;97925.13;5134791;27;20325;-70
2022/06/03 09:50:52;;;;;;;3.17;2.70;;;;;;;26.20;48.70;97923.22;5135083;27;20187;-70
2022/06/03 09:53:22;;;;;;;3.88;2.92;;;;;;;26.05;47.68;97920.97;5134882;27;20584;-69
2022/06/03 09:55:55;;;;;;;3.28;3.00;;;;;;;25.95;48.56;97913.13;5134831;27;20224;-70
2022/06/03 09:58:26;;;;;;;2.88;2.58;;;;;;;26.49;47.77;97923.31;5135292;27;20264;-70
2022/06/03 10:00:55;;;;;;;4.45;3.00;;;;;;;26.53;47.69;97910.63;5135042;27;20286;-70
2022/06/03 10:03:23;;;;;;;4.28;2.80;;;;;;;26.65;46.82;97914.31;5135057;27;20222;-70
2022/06/03 10:05:54;;;;;;;3.88;2.63;;;;;;;26.52;46.45;97912.56;5134859;27;20239;-69
2022/06/03 10:08:24;;;;;;;3.50;3.10;;;;;;;26.51;47.35;97915.63;5134992;27;20250;-69
2022/06/03 10:13:42;;;;;;;3.33;3.00;;;;;;;26.53;46.64;97916.06;5134942;27;20177;-69
2022/06/03 10:16:12;;;;;;;2.80;2.47;;;;;;;26.36;46.37;97924.28;5133986;27;20209;-69
2022/06/03 10:18:50;;;;;;;2.83;2.30;;;;;;;26.75;45.24;97924.88;5134858;27;20223;-69
2022/06/03 10:21:17;;;;;;;7.88;2.42;;;;;;;27.16;44.59;97926.94;5116225;27;20213;-69
2022/06/03 10:23:46;;;;;;;2.30;2.13;;;;;;;27.47;43.48;97919.25;5134751;27;20226;-69
2022/06/03 10:26:25;;;;;;;4.05;2.65;;;;;;;27.01;43.85;97913.88;5134389;27;20748;-69
2022/06/03 10:28:54;;;;;;;3.92;2.50;;;;;;;27.31;43.27;97907.28;5134532;27;20229;-69
2022/06/03 10:31:32;;;;;;;3.67;2.30;;;;;;;27.28;42.99;97902.50;5134799;27;20234;-69
2022/06/03 10:34:03;;;;;;;2.63;2.42;;;;;;;27.62;42.44;97902.28;5118196;27;20278;-70
2022/06/03 10:36:38;;;;;;;2.60;2.40;;;;;;;27.66;43.24;97902.44;5134432;27;20664;-69
2022/06/03 10:39:06;;;;;;;2.95;2.20;;;;;;;27.71;42.27;97902.22;5134204;27;20803;-70
2022/06/03 10:41:45;;;;;;;2.88;2.60;;;;;;;27.81;42.89;97908.09;5134448;27;20238;-71
2022/06/03 10:44:14;;;;;;;5.32;2.60;;;;;;;27.44;42.92;97905.47;5134080;27;20226;-70
2022/06/03 10:46:59;;;;;;;5.15;2.78;;;;;;;27.40;41.97;97904.53;5134493;27;20210;-69
2022/06/03 10:49:28;;;;;;;3.50;2.42;;;;;;;27.20;43.25;97895.16;5134367;27;20214;-70
2022/06/03 11:02:59;;;;;;;2.65;2.45;;;;;;;27.49;41.95;97899.81;5134366;27;20259;-70
2022/06/03 11:05:28;;;;;;;2.22;2.08;;;;;;;27.13;43.53;97908.50;5133826;27;20202;-70
2022/06/03 11:07:59;;;;;;;4.97;2.63;;;;;;;26.70;43.79;97916.88;5133500;28;20689;-70
2022/06/03 11:10:32;;;;;;;3.08;2.85;;;;;;;26.48;45.63;97919.78;5133558;28;20291;-70
2022/06/03 11:13:04;;;;;;;3.30;2.40;;;;;;;26.25;45.92;97917.59;5133820;28;20204;-69
2022/06/03 11:15:40;;;;;;;4.50;2.50;;;;;;;26.28;46.79;97930.56;5134093;28;20568;-70
2022/06/03 11:18:17;;;;;;;2.45;2.25;;;;;;;25.93;47.83;97937.97;5133274;28;20266;-70
2022/06/03 11:20:46;;;;;;;3.20;2.60;;;;;;;25.51;47.59;97941.41;5133715;28;20233;-70
2022/06/03 11:23:14;;;;;;;3.67;2.53;;;;;;;25.31;49.26;97947.44;5133064;28;20227;-70
2022/06/03 11:25:53;;;;;;;3.95;2.30;;;;;;;25.25;48.96;97959.56;5133109;28;20198;-70
2022/06/03 11:28:28;;;;;;;3.42;2.45;;;;;;;25.28;48.52;97964.41;5137351;27;20632;-70
2022/06/03 11:31:07;;;;;;;3.88;2.90;;;;;;;25.37;47.48;97954.34;5102590;27;20231;-70
2022/06/03 11:34:08;;;;;;;2.67;2.40;;;;;;;25.26;47.13;97939.44;5120623;27;20277;-70
2022/06/03 11:36:39;;;;;;;2.95;2.38;;;;;;;25.17;48.79;97943.22;5137469;27;20198;-69
2022/06/03 11:39:35;;;;;;;2.47;2.28;;;;;;;25.34;48.82;97948.75;5137969;27;20305;-69
2022/06/03 11:42:09;;;;;;;3.22;2.92;;;;;;;25.19;49.52;97949.16;5137844;27;20191;-69
2022/06/03 11:44:41;;;;;;;5.65;2.60;;;;;;;25.06;50.21;97948.13;5137645;27;20723;-69
2022/06/03 11:47:16;;;;;;;6.05;2.97;;;;;;;24.92;50.53;97947.44;5119666;27;20195;-69
2022/06/03 11:49:43;;;;;;;9.70;2.95;;;;;;;24.93;50.71;97946.31;5137149;27;20198;-69
2022/06/03 11:52:09;;;;;;;8.13;2.88;;;;;;;24.88;51.51;97945.66;5137455;27;20204;-69
2022/06/03 11:54:38;;;;;;;7.32;2.90;;;;;;;24.66;53.75;97938.38;5138516;27;20210;-69
2022/06/03 11:57:06;;;;;;;4.38;2.92;;;;;;;24.29;56.63;97929.78;5137051;27;20648;-69
2022/06/03 11:59:52;;;;;;;3.33;2.60;;;;;;;23.93;59.05;97920.91;5137114;27;20608;-69
2022/06/03 12:02:22;;;;;;;6.85;3.33;;;;;;;23.69;60.53;97909.50;5137432;27;20214;-69
2022/06/03 12:04:55;;;;;;;8.05;3.85;;;;;;;23.60;62.73;97916.75;5137622;27;20232;-69
2022/06/03 12:07:34;;;;;;;3.80;3.40;;;;;;;23.77;61.16;97911.47;5137404;27;20293;-69
2022/06/03 12:10:23;;;;;;;5.28;3.20;;;;;;;23.86;61.94;97898.75;5137333;27;20362;-69
2022/06/03 12:13:17;;;;;;;7.38;3.63;;;;;;;23.95;61.59;97886.91;5137507;27;20197;-69
2022/06/03 12:15:56;;;;;;;6.80;3.65;;;;;;;23.86;59.87;97877.84;5137031;27;20195;-69
2022/06/03 12:18:35;;;;;;;7.07;3.90;;;;;;;24.13;61.37;97874.22;5137142;27;20290;-69
2022/06/03 12:21:08;;;;;;;5.18;3.20;;;;;;;24.25;58.86;97869.81;5137106;27;20202;-69
2022/06/03 12:23:38;;;;;;;4.57;3.17;;;;;;;24.39;58.59;97861.59;5136633;27;20321;-69
2022/06/03 12:26:20;;;;;;;7.95;3.13;;;;;;;24.55;58.97;97865.50;5136656;27;20661;-69
2022/06/03 12:28:50;;;;;;;4.13;3.20;;;;;;;24.76;59.28;97863.88;5136998;27;20309;-69
2022/06/03 12:31:19;;;;;;;7.47;3.15;;;;;;;24.87;58.66;97863.25;5136593;27;20205;-69
2022/06/03 12:33:55;;;;;;;7.55;4.15;;;;;;;24.87;58.19;97867.91;5136880;27;20227;-69
2022/06/03 12:36:47;;;;;;;4.90;2.88;;;;;;;24.91;55.06;97869.69;5136404;27;20559;-69
2022/06/03 12:39:23;;;;;;;3.60;2.60;;;;;;;24.95;56.97;97880.72;5135591;27;20309;-69
2022/06/03 12:41:49;;;;;;;2.90;2.45;;;;;;;24.94;55.42;97882.66;5136688;27;20202;-69
2022/06/03 12:44:37;;;;;;;4.38;3.03;;;;;;;25.38;55.79;97885.19;5136667;27;20305;-69
2022/06/03 12:47:19;;;;;;;3.53;3.03;;;;;;;25.47;54.61;97888.72;5136881;27;20547;-69
2022/06/03 12:49:45;;;;;;;3.63;2.80;;;;;;;24.99;55.93;97895.28;5136386;27;20208;-69
2022/06/03 12:52:21;;;;;;;6.10;3.22;;;;;;;25.12;55.05;97903.34;5136292;27;20203;-69
2022/06/03 12:54:54;;;;;;;3.50;3.20;;;;;;;24.83;57.04;97905.81;5136026;27;20227;-70
2022/06/03 12:57:31;;;;;;;4.90;2.95;;;;;;;24.94;56.61;97917.19;5117902;27;20201;-69
2022/06/03 13:00:16;;;;;;;4.57;3.00;;;;;;;24.87;57.29;97911.44;5136241;27;20191;-69
2022/06/03 13:03:11;;;;;;;3.22;3.00;;;;;;;24.83;56.54;97921.34;5136133;27;20205;-70
2022/06/03 13:05:44;;;;;;;7.03;3.30;;;;;;;24.53;58.85;97928.34;5133554;27;20289;-69
2022/06/03 13:08:29;;;;;;;3.88;3.47;;;;;;;24.28;59.34;97914.63;5136594;27;20232;-69
2022/06/03 13:11:21;;;;;;;3.50;3.10;;;;;;;24.28;60.23;97926.25;5136178;27;20679;-69
2022/06/03 13:13:57;;;;;;;4.93;3.10;;;;;;;24.49;57.74;97911.06;5122474;27;20260;-70
2022/06/03 13:16:24;;;;;;;5.03;3.38;;;;;;;24.41;58.72;97919.13;5135831;27;20755;-69